Highlands, North Carolina
Current Conditions -  °F | °C
As of 8:55 PM on Friday 24 Oct 2014 (Local Time) from KTOC Reporting Station
Clear Clear  
Wind Chill: 53°   Ceiling: Unl
Heat Index: 53°   Visibility: 10mi
Dew Point: 51°   Wind: 0mph
Humidity: 91%   Direction: NA
Pressure: 30.02"   Gusts: NA
Location:  35.05°N, 83.2°W
Report Text: KTOC 250055Z AUTO 00000KT 10SM CLR 12/10 A3002 RMK AO2 T01180104
Loading
Personal Weather Stations






























Interactive Weather Map
Tropical Storm Tracking
New forecast layout! Learn more

10-Day Weather Forecast

Advertisements
Track Severe Weather on mobile